sensor_id;sensor_type;location;lat;lon;timestamp;P1;durP1;ratioP1;P2;durP2;ratioP2
47958;SDS011;33718;50.910;-1.514;2023-04-15T00:00:32;4.95;;;4.53;;
47958;SDS011;33718;50.910;-1.514;2023-04-15T00:02:37;5.05;;;4.55;;
47958;SDS011;33718;50.910;-1.514;2023-04-15T00:04:57;5.65;;;4.60;;
47958;SDS011;33718;50.910;-1.514;2023-04-15T00:06:59;5.78;;;5.18;;
47958;SDS011;33718;50.910;-1.514;2023-04-15T00:09:03;6.97;;;4.60;;
47958;SDS011;33718;50.910;-1.514;2023-04-15T00:11:07;5.20;;;4.70;;
47958;SDS011;33718;50.910;-1.514;2023-04-15T00:13:12;7.28;;;4.93;;
47958;SDS011;33718;50.910;-1.514;2023-04-15T00:15:13;5.60;;;4.20;;
47958;SDS011;33718;50.910;-1.514;2023-04-15T00:17:18;5.00;;;4.57;;
47958;SDS011;33718;50.910;-1.514;2023-04-15T00:21:27;6.57;;;4.80;;
47958;SDS011;33718;50.910;-1.514;2023-04-15T00:23:32;5.10;;;4.60;;
47958;SDS011;33718;50.910;-1.514;2023-04-15T00:25:33;5.88;;;4.68;;
47958;SDS011;33718;50.910;-1.514;2023-04-15T00:27:35;6.47;;;4.05;;
47958;SDS011;33718;50.910;-1.514;2023-04-15T00:29:36;5.50;;;4.32;;
47958;SDS011;33718;50.910;-1.514;2023-04-15T00:31:38;11.93;;;5.10;;
47958;SDS011;33718;50.910;-1.514;2023-04-15T00:33:39;4.60;;;4.07;;
47958;SDS011;33718;50.910;-1.514;2023-04-15T00:35:40;5.60;;;4.80;;
47958;SDS011;33718;50.910;-1.514;2023-04-15T00:40:05;4.65;;;4.18;;
47958;SDS011;33718;50.910;-1.514;2023-04-15T00:42:08;5.10;;;4.40;;
47958;SDS011;33718;50.910;-1.514;2023-04-15T00:44:10;5.57;;;4.50;;
47958;SDS011;33718;50.910;-1.514;2023-04-15T00:46:12;6.10;;;4.50;;
47958;SDS011;33718;50.910;-1.514;2023-04-15T00:48:33;5.85;;;4.72;;
47958;SDS011;33718;50.910;-1.514;2023-04-15T00:50:35;8.88;;;6.15;;
47958;SDS011;33718;50.910;-1.514;2023-04-15T00:54:40;5.80;;;5.20;;
47958;SDS011;33718;50.910;-1.514;2023-04-15T00:56:44;7.05;;;5.53;;
47958;SDS011;33718;50.910;-1.514;2023-04-15T00:58:47;7.05;;;5.78;;
47958;SDS011;33718;50.910;-1.514;2023-04-15T01:00:52;10.88;;;6.13;;
47958;SDS011;33718;50.910;-1.514;2023-04-15T01:03:10;7.55;;;6.00;;
47958;SDS011;33718;50.910;-1.514;2023-04-15T01:05:26;8.27;;;5.70;;
47958;SDS011;33718;50.910;-1.514;2023-04-15T01:07:42;6.95;;;5.82;;
47958;SDS011;33718;50.910;-1.514;2023-04-15T01:09:51;9.63;;;5.90;;
47958;SDS011;33718;50.910;-1.514;2023-04-15T01:12:04;8.10;;;6.30;;
47958;SDS011;33718;50.910;-1.514;2023-04-15T01:14:20;12.80;;;5.70;;
47958;SDS011;33718;50.910;-1.514;2023-04-15T01:16:32;6.50;;;5.18;;
47958;SDS011;33718;50.910;-1.514;2023-04-15T01:18:45;9.25;;;5.32;;
47958;SDS011;33718;50.910;-1.514;2023-04-15T01:21:01;8.23;;;4.97;;
47958;SDS011;33718;50.910;-1.514;2023-04-15T01:23:17;10.63;;;5.10;;
47958;SDS011;33718;50.910;-1.514;2023-04-15T01:25:33;6.80;;;4.57;;
47958;SDS011;33718;50.910;-1.514;2023-04-15T01:27:46;8.88;;;4.75;;
47958;SDS011;33718;50.910;-1.514;2023-04-15T01:30:00;8.85;;;4.07;;
47958;SDS011;33718;50.910;-1.514;2023-04-15T01:32:16;6.53;;;4.22;;
47958;SDS011;33718;50.910;-1.514;2023-04-15T01:34:25;12.27;;;4.97;;
47958;SDS011;33718;50.910;-1.514;2023-04-15T01:36:30;8.35;;;5.15;;
47958;SDS011;33718;50.910;-1.514;2023-04-15T01:38:34;8.73;;;6.07;;
47958;SDS011;33718;50.910;-1.514;2023-04-15T01:40:55;9.68;;;6.00;;
47958;SDS011;33718;50.910;-1.514;2023-04-15T01:42:56;7.75;;;5.88;;
47958;SDS011;33718;50.910;-1.514;2023-04-15T01:45:01;13.20;;;6.28;;
47958;SDS011;33718;50.910;-1.514;2023-04-15T01:47:05;8.05;;;5.95;;
47958;SDS011;33718;50.910;-1.514;2023-04-15T01:49:07;9.88;;;6.10;;
47958;SDS011;33718;50.910;-1.514;2023-04-15T01:51:11;11.55;;;6.95;;
47958;SDS011;33718;50.910;-1.514;2023-04-15T01:53:16;9.18;;;6.80;;
47958;SDS011;33718;50.910;-1.514;2023-04-15T01:55:20;16.55;;;8.93;;
47958;SDS011;33718;50.910;-1.514;2023-04-15T01:57:22;15.15;;;8.07;;
47958;SDS011;33718;50.910;-1.514;2023-04-15T01:59:26;11.57;;;8.13;;
47958;SDS011;33718;50.910;-1.514;2023-04-15T02:01:46;12.60;;;7.57;;
47958;SDS011;33718;50.910;-1.514;2023-04-15T02:03:48;12.18;;;7.82;;
47958;SDS011;33718;50.910;-1.514;2023-04-15T02:05:49;12.68;;;7.95;;
47958;SDS011;33718;50.910;-1.514;2023-04-15T02:07:52;11.20;;;8.20;;
47958;SDS011;33718;50.910;-1.514;2023-04-15T02:09:54;12.77;;;9.95;;
47958;SDS011;33718;50.910;-1.514;2023-04-15T02:11:55;12.93;;;9.13;;
47958;SDS011;33718;50.910;-1.514;2023-04-15T02:14:00;11.10;;;8.93;;
47958;SDS011;33718;50.910;-1.514;2023-04-15T02:18:08;12.40;;;8.20;;
47958;SDS011;33718;50.910;-1.514;2023-04-15T02:26:23;13.70;;;9.45;;
47958;SDS011;33718;50.910;-1.514;2023-04-15T02:28:28;13.68;;;10.35;;
47958;SDS011;33718;50.910;-1.514;2023-04-15T02:30:30;16.90;;;11.07;;
47958;SDS011;33718;50.910;-1.514;2023-04-15T02:32:34;19.58;;;9.50;;
47958;SDS011;33718;50.910;-1.514;2023-04-15T02:34:39;13.82;;;8.68;;
47958;SDS011;33718;50.910;-1.514;2023-04-15T02:36:45;14.07;;;10.60;;
47958;SDS011;33718;50.910;-1.514;2023-04-15T02:38:48;14.88;;;10.52;;
47958;SDS011;33718;50.910;-1.514;2023-04-15T02:40:50;16.73;;;10.65;;
47958;SDS011;33718;50.910;-1.514;2023-04-15T02:42:52;16.15;;;9.63;;
47958;SDS011;33718;50.910;-1.514;2023-04-15T02:44:56;14.68;;;10.40;;
47958;SDS011;33718;50.910;-1.514;2023-04-15T02:46:58;20.58;;;11.63;;
47958;SDS011;33718;50.910;-1.514;2023-04-15T02:49:00;16.02;;;11.18;;
47958;SDS011;33718;50.910;-1.514;2023-04-15T02:51:13;19.35;;;11.43;;
47958;SDS011;33718;50.910;-1.514;2023-04-15T02:53:17;16.13;;;10.55;;
47958;SDS011;33718;50.910;-1.514;2023-04-15T02:55:20;17.25;;;11.35;;
47958;SDS011;33718;50.910;-1.514;2023-04-15T02:59:29;14.75;;;10.55;;
47958;SDS011;33718;50.910;-1.514;2023-04-15T03:01:30;20.05;;;11.57;;
47958;SDS011;33718;50.910;-1.514;2023-04-15T03:03:35;17.20;;;11.95;;
47958;SDS011;33718;50.910;-1.514;2023-04-15T03:05:36;18.88;;;13.05;;
47958;SDS011;33718;50.910;-1.514;2023-04-15T03:07:42;19.05;;;12.45;;
47958;SDS011;33718;50.910;-1.514;2023-04-15T03:09:46;20.40;;;13.35;;
47958;SDS011;33718;50.910;-1.514;2023-04-15T03:12:06;14.45;;;11.07;;
47958;SDS011;33718;50.910;-1.514;2023-04-15T03:14:10;19.80;;;12.93;;
47958;SDS011;33718;50.910;-1.514;2023-04-15T03:16:12;20.00;;;12.90;;
47958;SDS011;33718;50.910;-1.514;2023-04-15T03:18:13;20.25;;;11.40;;
47958;SDS011;33718;50.910;-1.514;2023-04-15T03:20:17;19.48;;;12.20;;
47958;SDS011;33718;50.910;-1.514;2023-04-15T03:22:19;20.58;;;13.25;;
47958;SDS011;33718;50.910;-1.514;2023-04-15T03:24:40;17.80;;;12.02;;
47958;SDS011;33718;50.910;-1.514;2023-04-15T03:28:45;21.85;;;11.73;;
47958;SDS011;33718;50.910;-1.514;2023-04-15T03:30:47;19.48;;;12.25;;
47958;SDS011;33718;50.910;-1.514;2023-04-15T03:32:51;20.08;;;13.07;;
47958;SDS011;33718;50.910;-1.514;2023-04-15T03:34:55;23.05;;;13.05;;
47958;SDS011;33718;50.910;-1.514;2023-04-15T03:37:16;19.77;;;13.80;;
47958;SDS011;33718;50.910;-1.514;2023-04-15T03:39:17;17.58;;;12.27;;
47958;SDS011;33718;50.910;-1.514;2023-04-15T03:41:37;22.48;;;12.88;;
47958;SDS011;33718;50.910;-1.514;2023-04-15T03:45:45;20.50;;;12.95;;
47958;SDS011;33718;50.910;-1.514;2023-04-15T03:47:47;16.55;;;11.82;;
47958;SDS011;33718;50.910;-1.514;2023-04-15T03:49:50;18.65;;;11.95;;
47958;SDS011;33718;50.910;-1.514;2023-04-15T03:51:54;19.35;;;11.35;;
47958;SDS011;33718;50.910;-1.514;2023-04-15T03:54:14;14.77;;;11.20;;
47958;SDS011;33718;50.910;-1.514;2023-04-15T03:56:18;19.13;;;12.68;;
47958;SDS011;33718;50.910;-1.514;2023-04-15T04:00:27;19.88;;;11.15;;
47958;SDS011;33718;50.910;-1.514;2023-04-15T04:02:32;18.67;;;11.55;;
47958;SDS011;33718;50.910;-1.514;2023-04-15T04:04:40;15.15;;;12.00;;
47958;SDS011;33718;50.910;-1.514;2023-04-15T04:06:46;17.92;;;12.48;;
47958;SDS011;33718;50.910;-1.514;2023-04-15T04:08:51;17.08;;;11.32;;
47958;SDS011;33718;50.910;-1.514;2023-04-15T04:10:55;16.98;;;12.82;;
47958;SDS011;33718;50.910;-1.514;2023-04-15T04:13:04;18.88;;;12.85;;
47958;SDS011;33718;50.910;-1.514;2023-04-15T04:15:09;17.13;;;12.57;;
47958;SDS011;33718;50.910;-1.514;2023-04-15T04:17:15;18.20;;;11.18;;
47958;SDS011;33718;50.910;-1.514;2023-04-15T04:19:18;16.35;;;13.00;;
47958;SDS011;33718;50.910;-1.514;2023-04-15T04:21:28;18.65;;;11.75;;
47958;SDS011;33718;50.910;-1.514;2023-04-15T04:23:33;16.23;;;12.02;;
47958;SDS011;33718;50.910;-1.514;2023-04-15T04:25:39;22.00;;;13.60;;
47958;SDS011;33718;50.910;-1.514;2023-04-15T04:27:43;19.10;;;12.60;;
47958;SDS011;33718;50.910;-1.514;2023-04-15T04:29:50;15.75;;;12.45;;
47958;SDS011;33718;50.910;-1.514;2023-04-15T04:31:56;17.70;;;13.23;;
47958;SDS011;33718;50.910;-1.514;2023-04-15T04:34:02;19.17;;;12.60;;
47958;SDS011;33718;50.910;-1.514;2023-04-15T04:36:06;17.13;;;12.40;;
47958;SDS011;33718;50.910;-1.514;2023-04-15T04:38:09;21.20;;;12.60;;
47958;SDS011;33718;50.910;-1.514;2023-04-15T04:40:14;17.55;;;12.35;;
47958;SDS011;33718;50.910;-1.514;2023-04-15T04:44:19;20.88;;;13.55;;
47958;SDS011;33718;50.910;-1.514;2023-04-15T04:46:23;22.38;;;13.82;;
47958;SDS011;33718;50.910;-1.514;2023-04-15T04:48:25;22.23;;;12.32;;
47958;SDS011;33718;50.910;-1.514;2023-04-15T04:50:27;21.08;;;12.98;;
47958;SDS011;33718;50.910;-1.514;2023-04-15T04:52:31;19.95;;;13.70;;
47958;SDS011;33718;50.910;-1.514;2023-04-15T04:54:33;21.63;;;12.27;;
47958;SDS011;33718;50.910;-1.514;2023-04-15T04:56:37;22.67;;;12.80;;
47958;SDS011;33718;50.910;-1.514;2023-04-15T04:58:42;17.75;;;11.50;;
47958;SDS011;33718;50.910;-1.514;2023-04-15T05:00:44;18.58;;;12.40;;
47958;SDS011;33718;50.910;-1.514;2023-04-15T05:02:46;17.15;;;12.23;;
47958;SDS011;33718;50.910;-1.514;2023-04-15T05:04:47;19.23;;;12.57;;
47958;SDS011;33718;50.910;-1.514;2023-04-15T05:06:50;22.58;;;11.95;;
47958;SDS011;33718;50.910;-1.514;2023-04-15T05:08:54;19.15;;;13.00;;
47958;SDS011;33718;50.910;-1.514;2023-04-15T05:10:59;19.85;;;12.00;;
47958;SDS011;33718;50.910;-1.514;2023-04-15T05:13:03;18.50;;;12.10;;
47958;SDS011;33718;50.910;-1.514;2023-04-15T05:15:23;16.73;;;11.40;;
47958;SDS011;33718;50.910;-1.514;2023-04-15T05:17:28;21.10;;;12.52;;
47958;SDS011;33718;50.910;-1.514;2023-04-15T05:19:32;22.77;;;12.60;;
47958;SDS011;33718;50.910;-1.514;2023-04-15T05:21:33;18.23;;;11.18;;
47958;SDS011;33718;50.910;-1.514;2023-04-15T05:23:39;18.52;;;12.43;;
47958;SDS011;33718;50.910;-1.514;2023-04-15T05:25:41;15.18;;;11.40;;
47958;SDS011;33718;50.910;-1.514;2023-04-15T05:27:43;19.48;;;12.55;;
47958;SDS011;33718;50.910;-1.514;2023-04-15T05:29:47;23.95;;;11.43;;
47958;SDS011;33718;50.910;-1.514;2023-04-15T05:32:07;22.25;;;12.90;;
47958;SDS011;33718;50.910;-1.514;2023-04-15T05:36:13;15.73;;;10.50;;
47958;SDS011;33718;50.910;-1.514;2023-04-15T05:38:17;25.52;;;11.93;;
47958;SDS011;33718;50.910;-1.514;2023-04-15T05:40:22;17.17;;;12.00;;
47958;SDS011;33718;50.910;-1.514;2023-04-15T05:42:23;15.40;;;11.93;;
47958;SDS011;33718;50.910;-1.514;2023-04-15T05:44:25;17.52;;;11.43;;
47958;SDS011;33718;50.910;-1.514;2023-04-15T05:46:27;19.00;;;11.95;;
47958;SDS011;33718;50.910;-1.514;2023-04-15T05:48:31;17.67;;;11.00;;
47958;SDS011;33718;50.910;-1.514;2023-04-15T05:50:32;17.77;;;12.40;;
47958;SDS011;33718;50.910;-1.514;2023-04-15T05:52:37;19.73;;;12.77;;
47958;SDS011;33718;50.910;-1.514;2023-04-15T05:54:41;16.27;;;10.55;;
47958;SDS011;33718;50.910;-1.514;2023-04-15T05:57:01;19.10;;;11.25;;
47958;SDS011;33718;50.910;-1.514;2023-04-15T05:59:21;16.05;;;11.30;;
47958;SDS011;33718;50.910;-1.514;2023-04-15T06:01:42;18.20;;;11.52;;
47958;SDS011;33718;50.910;-1.514;2023-04-15T06:03:47;16.80;;;10.70;;
47958;SDS011;33718;50.910;-1.514;2023-04-15T06:05:52;14.88;;;10.90;;
47958;SDS011;33718;50.910;-1.514;2023-04-15T06:07:53;16.17;;;11.25;;
47958;SDS011;33718;50.910;-1.514;2023-04-15T06:09:57;19.77;;;10.80;;
47958;SDS011;33718;50.910;-1.514;2023-04-15T06:14:06;16.98;;;10.77;;
47958;SDS011;33718;50.910;-1.514;2023-04-15T06:16:26;15.35;;;10.85;;
47958;SDS011;33718;50.910;-1.514;2023-04-15T06:18:28;17.90;;;10.27;;
47958;SDS011;33718;50.910;-1.514;2023-04-15T06:20:29;16.05;;;9.43;;
47958;SDS011;33718;50.910;-1.514;2023-04-15T06:22:49;16.50;;;10.27;;
47958;SDS011;33718;50.910;-1.514;2023-04-15T06:24:51;14.65;;;9.93;;
47958;SDS011;33718;50.910;-1.514;2023-04-15T06:26:56;14.23;;;8.70;;
47958;SDS011;33718;50.910;-1.514;2023-04-15T06:29:16;13.55;;;9.32;;
47958;SDS011;33718;50.910;-1.514;2023-04-15T06:33:25;11.55;;;8.70;;
47958;SDS011;33718;50.910;-1.514;2023-04-15T06:35:26;14.73;;;7.90;;
47958;SDS011;33718;50.910;-1.514;2023-04-15T06:39:33;10.93;;;7.57;;
47958;SDS011;33718;50.910;-1.514;2023-04-15T06:41:53;11.32;;;7.18;;
47958;SDS011;33718;50.910;-1.514;2023-04-15T06:43:54;7.35;;;5.85;;
47958;SDS011;33718;50.910;-1.514;2023-04-15T06:48:00;7.85;;;6.47;;
47958;SDS011;33718;50.910;-1.514;2023-04-15T06:50:02;6.95;;;5.85;;
47958;SDS011;33718;50.910;-1.514;2023-04-15T06:52:04;7.75;;;5.00;;
47958;SDS011;33718;50.910;-1.514;2023-04-15T06:56:12;6.35;;;4.40;;
47958;SDS011;33718;50.910;-1.514;2023-04-15T06:58:14;7.00;;;4.25;;
47958;SDS011;33718;50.910;-1.514;2023-04-15T07:00:18;6.15;;;4.40;;
47958;SDS011;33718;50.910;-1.514;2023-04-15T07:02:20;5.20;;;4.10;;
47958;SDS011;33718;50.910;-1.514;2023-04-15T07:06:27;5.07;;;3.27;;
47958;SDS011;33718;50.910;-1.514;2023-04-15T07:08:29;4.40;;;3.40;;
47958;SDS011;33718;50.910;-1.514;2023-04-15T07:10:37;4.35;;;3.17;;
47958;SDS011;33718;50.910;-1.514;2023-04-15T07:12:49;6.53;;;4.43;;
47958;SDS011;33718;50.910;-1.514;2023-04-15T07:15:01;3.38;;;3.17;;
47958;SDS011;33718;50.910;-1.514;2023-04-15T07:17:02;5.32;;;3.47;;
47958;SDS011;33718;50.910;-1.514;2023-04-15T07:19:04;4.78;;;3.65;;
47958;SDS011;33718;50.910;-1.514;2023-04-15T07:21:10;5.03;;;3.30;;
47958;SDS011;33718;50.910;-1.514;2023-04-15T07:23:14;4.43;;;3.53;;
47958;SDS011;33718;50.910;-1.514;2023-04-15T07:25:20;5.30;;;3.78;;
47958;SDS011;33718;50.910;-1.514;2023-04-15T07:27:27;6.07;;;3.92;;
47958;SDS011;33718;50.910;-1.514;2023-04-15T07:29:47;5.60;;;4.28;;
47958;SDS011;33718;50.910;-1.514;2023-04-15T07:31:52;4.80;;;3.40;;
47958;SDS011;33718;50.910;-1.514;2023-04-15T07:33:58;6.45;;;3.83;;
47958;SDS011;33718;50.910;-1.514;2023-04-15T07:36:02;4.25;;;3.42;;
47958;SDS011;33718;50.910;-1.514;2023-04-15T07:38:07;5.85;;;4.43;;
47958;SDS011;33718;50.910;-1.514;2023-04-15T07:42:32;3.50;;;3.20;;
47958;SDS011;33718;50.910;-1.514;2023-04-15T07:44:38;5.80;;;4.25;;
47958;SDS011;33718;50.910;-1.514;2023-04-15T07:46:42;4.40;;;3.58;;
47958;SDS011;33718;50.910;-1.514;2023-04-15T07:48:43;4.30;;;3.90;;
47958;SDS011;33718;50.910;-1.514;2023-04-15T07:50:48;3.55;;;3.25;;
47958;SDS011;33718;50.910;-1.514;2023-04-15T07:52:52;5.57;;;3.42;;
47958;SDS011;33718;50.910;-1.514;2023-04-15T07:54:54;4.35;;;3.38;;
47958;SDS011;33718;50.910;-1.514;2023-04-15T07:56:56;3.60;;;3.30;;
47958;SDS011;33718;50.910;-1.514;2023-04-15T07:58:59;4.00;;;3.13;;
47958;SDS011;33718;50.910;-1.514;2023-04-15T08:01:04;3.50;;;3.20;;
47958;SDS011;33718;50.910;-1.514;2023-04-15T08:03:08;3.72;;;3.42;;
47958;SDS011;33718;50.910;-1.514;2023-04-15T08:05:13;3.70;;;3.40;;
47958;SDS011;33718;50.910;-1.514;2023-04-15T08:07:35;3.75;;;3.45;;
47958;SDS011;33718;50.910;-1.514;2023-04-15T08:09:41;3.95;;;3.25;;
47958;SDS011;33718;50.910;-1.514;2023-04-15T08:11:47;5.00;;;3.47;;
47958;SDS011;33718;50.910;-1.514;2023-04-15T08:13:52;3.70;;;3.40;;
47958;SDS011;33718;50.910;-1.514;2023-04-15T08:18:15;3.25;;;2.92;;
47958;SDS011;33718;50.910;-1.514;2023-04-15T08:20:18;3.55;;;3.25;;
47958;SDS011;33718;50.910;-1.514;2023-04-15T08:22:20;3.25;;;2.95;;
47958;SDS011;33718;50.910;-1.514;2023-04-15T08:24:25;4.20;;;3.08;;
47958;SDS011;33718;50.910;-1.514;2023-04-15T08:26:28;5.43;;;3.00;;
47958;SDS011;33718;50.910;-1.514;2023-04-15T08:28:32;3.35;;;3.15;;
47958;SDS011;33718;50.910;-1.514;2023-04-15T08:30:35;3.40;;;3.10;;
47958;SDS011;33718;50.910;-1.514;2023-04-15T08:32:41;3.55;;;3.25;;
47958;SDS011;33718;50.910;-1.514;2023-04-15T08:34:43;3.65;;;3.35;;
47958;SDS011;33718;50.910;-1.514;2023-04-15T08:36:45;3.42;;;3.13;;
47958;SDS011;33718;50.910;-1.514;2023-04-15T08:38:49;4.60;;;3.80;;
47958;SDS011;33718;50.910;-1.514;2023-04-15T08:40:51;6.22;;;4.28;;
47958;SDS011;33718;50.910;-1.514;2023-04-15T08:43:12;5.78;;;4.15;;
47958;SDS011;33718;50.910;-1.514;2023-04-15T08:45:18;4.15;;;3.75;;
47958;SDS011;33718;50.910;-1.514;2023-04-15T08:47:24;5.97;;;4.43;;
47958;SDS011;33718;50.910;-1.514;2023-04-15T08:49:30;4.75;;;4.35;;
47958;SDS011;33718;50.910;-1.514;2023-04-15T08:51:32;4.10;;;3.80;;
47958;SDS011;33718;50.910;-1.514;2023-04-15T08:53:41;4.43;;;4.03;;
47958;SDS011;33718;50.910;-1.514;2023-04-15T08:55:44;6.77;;;4.20;;
47958;SDS011;33718;50.910;-1.514;2023-04-15T08:57:51;5.70;;;4.35;;
47958;SDS011;33718;50.910;-1.514;2023-04-15T08:59:56;4.30;;;3.70;;
47958;SDS011;33718;50.910;-1.514;2023-04-15T09:02:01;5.15;;;4.50;;
47958;SDS011;33718;50.910;-1.514;2023-04-15T09:04:03;3.60;;;3.30;;
47958;SDS011;33718;50.910;-1.514;2023-04-15T09:06:08;4.30;;;3.58;;
47958;SDS011;33718;50.910;-1.514;2023-04-15T09:08:10;4.15;;;3.75;;
47958;SDS011;33718;50.910;-1.514;2023-04-15T09:10:14;6.05;;;4.55;;
47958;SDS011;33718;50.910;-1.514;2023-04-15T09:12:18;4.28;;;3.88;;
47958;SDS011;33718;50.910;-1.514;2023-04-15T09:14:20;4.47;;;4.07;;
47958;SDS011;33718;50.910;-1.514;2023-04-15T09:16:22;5.63;;;4.00;;
47958;SDS011;33718;50.910;-1.514;2023-04-15T09:18:27;3.97;;;3.67;;
47958;SDS011;33718;50.910;-1.514;2023-04-15T09:20:29;5.88;;;4.22;;
47958;SDS011;33718;50.910;-1.514;2023-04-15T09:22:34;3.80;;;3.50;;
47958;SDS011;33718;50.910;-1.514;2023-04-15T09:24:40;5.32;;;3.70;;
47958;SDS011;33718;50.910;-1.514;2023-04-15T09:27:02;4.05;;;3.60;;
47958;SDS011;33718;50.910;-1.514;2023-04-15T09:29:04;3.30;;;3.05;;
47958;SDS011;33718;50.910;-1.514;2023-04-15T09:31:06;3.08;;;2.78;;
47958;SDS011;33718;50.910;-1.514;2023-04-15T09:33:13;4.53;;;3.70;;
47958;SDS011;33718;50.910;-1.514;2023-04-15T09:35:18;3.83;;;3.53;;
47958;SDS011;33718;50.910;-1.514;2023-04-15T09:37:33;3.45;;;3.15;;
47958;SDS011;33718;50.910;-1.514;2023-04-15T09:39:47;2.85;;;2.58;;
47958;SDS011;33718;50.910;-1.514;2023-04-15T09:42:13;3.20;;;2.90;;
47958;SDS011;33718;50.910;-1.514;2023-04-15T09:44:24;2.75;;;2.55;;
47958;SDS011;33718;50.910;-1.514;2023-04-15T09:46:41;2.50;;;2.30;;
47958;SDS011;33718;50.910;-1.514;2023-04-15T09:48:46;2.90;;;2.65;;
47958;SDS011;33718;50.910;-1.514;2023-04-15T09:50:51;2.40;;;2.20;;
47958;SDS011;33718;50.910;-1.514;2023-04-15T09:52:56;3.00;;;2.80;;
47958;SDS011;33718;50.910;-1.514;2023-04-15T09:55:02;2.88;;;2.67;;
47958;SDS011;33718;50.910;-1.514;2023-04-15T09:57:07;2.78;;;2.58;;
47958;SDS011;33718;50.910;-1.514;2023-04-15T09:59:13;2.80;;;2.60;;
47958;SDS011;33718;50.910;-1.514;2023-04-15T10:01:17;3.17;;;2.97;;
47958;SDS011;33718;50.910;-1.514;2023-04-15T10:03:23;3.50;;;3.20;;
47958;SDS011;33718;50.910;-1.514;2023-04-15T10:05:28;3.13;;;2.92;;
47958;SDS011;33718;50.910;-1.514;2023-04-15T10:07:30;2.97;;;2.78;;
47958;SDS011;33718;50.910;-1.514;2023-04-15T10:09:35;5.38;;;3.00;;
47958;SDS011;33718;50.910;-1.514;2023-04-15T10:11:36;3.35;;;3.15;;
47958;SDS011;33718;50.910;-1.514;2023-04-15T10:13:38;2.97;;;2.70;;
47958;SDS011;33718;50.910;-1.514;2023-04-15T10:15:41;3.65;;;2.70;;
47958;SDS011;33718;50.910;-1.514;2023-04-15T10:17:44;2.78;;;2.58;;
47958;SDS011;33718;50.910;-1.514;2023-04-15T10:19:52;3.15;;;2.95;;
47958;SDS011;33718;50.910;-1.514;2023-04-15T10:21:59;3.17;;;2.97;;
47958;SDS011;33718;50.910;-1.514;2023-04-15T10:24:07;2.95;;;2.75;;
47958;SDS011;33718;50.910;-1.514;2023-04-15T10:26:13;3.42;;;3.13;;
47958;SDS011;33718;50.910;-1.514;2023-04-15T10:28:17;3.30;;;3.10;;
47958;SDS011;33718;50.910;-1.514;2023-04-15T10:30:22;3.75;;;3.28;;
47958;SDS011;33718;50.910;-1.514;2023-04-15T10:32:28;2.70;;;2.50;;
47958;SDS011;33718;50.910;-1.514;2023-04-15T10:34:33;2.72;;;2.50;;
47958;SDS011;33718;50.910;-1.514;2023-04-15T10:36:37;2.60;;;2.40;;
47958;SDS011;33718;50.910;-1.514;2023-04-15T10:38:42;2.83;;;2.60;;
47958;SDS011;33718;50.910;-1.514;2023-04-15T10:40:46;1.70;;;1.60;;
47958;SDS011;33718;50.910;-1.514;2023-04-15T10:42:54;2.47;;;2.28;;
47958;SDS011;33718;50.910;-1.514;2023-04-15T10:45:00;2.28;;;2.08;;
47958;SDS011;33718;50.910;-1.514;2023-04-15T10:47:22;2.65;;;2.45;;
47958;SDS011;33718;50.910;-1.514;2023-04-15T10:49:30;3.00;;;2.80;;
47958;SDS011;33718;50.910;-1.514;2023-04-15T10:51:36;3.53;;;2.80;;
47958;SDS011;33718;50.910;-1.514;2023-04-15T10:53:46;3.22;;;2.92;;
47958;SDS011;33718;50.910;-1.514;2023-04-15T10:55:50;2.95;;;2.75;;
47958;SDS011;33718;50.910;-1.514;2023-04-15T10:57:58;2.75;;;2.22;;
47958;SDS011;33718;50.910;-1.514;2023-04-15T11:00:02;2.28;;;2.08;;
47958;SDS011;33718;50.910;-1.514;2023-04-15T11:02:11;2.42;;;2.22;;
47958;SDS011;33718;50.910;-1.514;2023-04-15T11:04:13;2.22;;;2.13;;
47958;SDS011;33718;50.910;-1.514;2023-04-15T11:06:15;1.90;;;1.80;;
47958;SDS011;33718;50.910;-1.514;2023-04-15T11:08:19;1.98;;;1.88;;
47958;SDS011;33718;50.910;-1.514;2023-04-15T11:12:44;1.50;;;1.40;;
47958;SDS011;33718;50.910;-1.514;2023-04-15T11:14:48;1.60;;;1.40;;
47958;SDS011;33718;50.910;-1.514;2023-04-15T11:16:50;5.07;;;2.08;;
47958;SDS011;33718;50.910;-1.514;2023-04-15T11:18:54;1.63;;;1.52;;
47958;SDS011;33718;50.910;-1.514;2023-04-15T11:21:00;1.98;;;1.88;;
47958;SDS011;33718;50.910;-1.514;2023-04-15T11:23:01;2.00;;;1.80;;
47958;SDS011;33718;50.910;-1.514;2023-04-15T11:25:25;1.75;;;1.65;;
47958;SDS011;33718;50.910;-1.514;2023-04-15T11:27:26;2.33;;;1.50;;
47958;SDS011;33718;50.910;-1.514;2023-04-15T11:29:34;2.65;;;1.60;;
47958;SDS011;33718;50.910;-1.514;2023-04-15T11:32:03;3.35;;;1.33;;
47958;SDS011;33718;50.910;-1.514;2023-04-15T11:34:04;1.48;;;1.38;;
47958;SDS011;33718;50.910;-1.514;2023-04-15T11:36:09;1.05;;;0.90;;
47958;SDS011;33718;50.910;-1.514;2023-04-15T11:38:14;1.13;;;1.00;;
47958;SDS011;33718;50.910;-1.514;2023-04-15T11:40:22;1.85;;;0.93;;
47958;SDS011;33718;50.910;-1.514;2023-04-15T11:42:27;0.90;;;0.90;;
47958;SDS011;33718;50.910;-1.514;2023-04-15T11:44:46;0.70;;;0.70;;
47958;SDS011;33718;50.910;-1.514;2023-04-15T11:46:48;0.65;;;0.65;;
47958;SDS011;33718;50.910;-1.514;2023-04-15T11:48:49;0.90;;;0.70;;
47958;SDS011;33718;50.910;-1.514;2023-04-15T11:51:01;0.63;;;0.63;;
47958;SDS011;33718;50.910;-1.514;2023-04-15T11:53:04;1.10;;;1.00;;
47958;SDS011;33718;50.910;-1.514;2023-04-15T11:55:08;0.65;;;0.65;;
47958;SDS011;33718;50.910;-1.514;2023-04-15T11:57:13;0.77;;;0.77;;
47958;SDS011;33718;50.910;-1.514;2023-04-15T11:59:14;0.50;;;0.47;;
47958;SDS011;33718;50.910;-1.514;2023-04-15T12:01:16;1.33;;;0.60;;
47958;SDS011;33718;50.910;-1.514;2023-04-15T12:03:30;0.95;;;0.60;;
47958;SDS011;33718;50.910;-1.514;2023-04-15T12:05:37;0.80;;;0.80;;
47958;SDS011;33718;50.910;-1.514;2023-04-15T12:08:01;1.00;;;0.90;;
47958;SDS011;33718;50.910;-1.514;2023-04-15T12:10:05;0.50;;;0.47;;
47958;SDS011;33718;50.910;-1.514;2023-04-15T12:12:07;0.80;;;0.60;;
47958;SDS011;33718;50.910;-1.514;2023-04-15T12:14:30;1.35;;;1.15;;
47958;SDS011;33718;50.910;-1.514;2023-04-15T12:16:36;0.82;;;0.82;;
47958;SDS011;33718;50.910;-1.514;2023-04-15T12:18:50;1.25;;;0.90;;
47958;SDS011;33718;50.910;-1.514;2023-04-15T12:21:11;1.15;;;0.90;;
47958;SDS011;33718;50.910;-1.514;2023-04-15T12:23:18;1.20;;;0.85;;
47958;SDS011;33718;50.910;-1.514;2023-04-15T12:25:31;2.20;;;0.90;;
47958;SDS011;33718;50.910;-1.514;2023-04-15T12:27:36;0.55;;;0.55;;
47958;SDS011;33718;50.910;-1.514;2023-04-15T12:29:39;1.17;;;0.70;;
47958;SDS011;33718;50.910;-1.514;2023-04-15T12:31:57;0.88;;;0.82;;
47958;SDS011;33718;50.910;-1.514;2023-04-15T12:34:02;0.82;;;0.82;;
47958;SDS011;33718;50.910;-1.514;2023-04-15T12:36:05;0.57;;;0.57;;
47958;SDS011;33718;50.910;-1.514;2023-04-15T12:38:07;0.57;;;0.57;;
47958;SDS011;33718;50.910;-1.514;2023-04-15T12:40:13;0.77;;;0.60;;
47958;SDS011;33718;50.910;-1.514;2023-04-15T12:42:15;1.55;;;1.45;;
47958;SDS011;33718;50.910;-1.514;2023-04-15T12:44:17;1.20;;;1.10;;
47958;SDS011;33718;50.910;-1.514;2023-04-15T12:46:22;1.40;;;1.30;;
47958;SDS011;33718;50.910;-1.514;2023-04-15T12:48:26;1.42;;;1.10;;
47958;SDS011;33718;50.910;-1.514;2023-04-15T12:50:28;2.25;;;1.60;;
47958;SDS011;33718;50.910;-1.514;2023-04-15T12:52:29;1.33;;;1.20;;
47958;SDS011;33718;50.910;-1.514;2023-04-15T12:54:31;0.93;;;0.93;;
47958;SDS011;33718;50.910;-1.514;2023-04-15T12:56:35;1.27;;;1.17;;
47958;SDS011;33718;50.910;-1.514;2023-04-15T12:58:40;1.48;;;0.98;;
47958;SDS011;33718;50.910;-1.514;2023-04-15T13:00:44;1.63;;;1.40;;
47958;SDS011;33718;50.910;-1.514;2023-04-15T13:02:45;1.10;;;0.80;;
47958;SDS011;33718;50.910;-1.514;2023-04-15T13:04:50;1.02;;;0.70;;
47958;SDS011;33718;50.910;-1.514;2023-04-15T13:06:55;0.50;;;0.50;;